createdAt,value
2018-11-20T00:00:28.677Z,6.47
2018-11-20T00:03:01.384Z,6.57
2018-11-20T00:05:33.773Z,6.50
2018-11-20T00:08:06.447Z,6.70
2018-11-20T00:10:39.430Z,6.63
2018-11-20T00:13:12.109Z,6.20
2018-11-20T00:15:44.734Z,6.60
2018-11-20T00:18:17.165Z,6.70
2018-11-20T00:20:49.557Z,6.90
2018-11-20T00:23:21.966Z,6.70
2018-11-20T00:25:54.647Z,7.00
2018-11-20T00:28:27.113Z,6.70
2018-11-20T00:30:59.806Z,7.37
2018-11-20T00:33:32.235Z,6.67
2018-11-20T00:36:05.064Z,7.70
2018-11-20T00:38:37.777Z,7.53
2018-11-20T00:41:10.185Z,7.20
2018-11-20T00:43:42.922Z,7.30
2018-11-20T00:46:15.657Z,7.57
2018-11-20T00:48:48.097Z,7.50
2018-11-20T00:51:20.510Z,7.97
2018-11-20T00:53:52.951Z,7.97
2018-11-20T00:56:38.978Z,7.57
2018-11-20T00:59:11.673Z,7.60
2018-11-20T01:01:44.078Z,8.83
2018-11-20T01:04:16.510Z,8.17
2018-11-20T01:06:48.932Z,9.03
2018-11-20T01:09:21.363Z,7.83
2018-11-20T01:11:54.026Z,8.77
2018-11-20T01:14:26.732Z,7.90
2018-11-20T01:16:59.142Z,9.27
2018-11-20T01:19:31.610Z,8.60
2018-11-20T01:22:04.017Z,9.07
2018-11-20T01:24:36.718Z,9.63
2018-11-20T01:27:09.122Z,8.67
2018-11-20T01:29:41.886Z,9.57
2018-11-20T01:32:14.298Z,9.87
2018-11-20T01:34:46.705Z,10.63
2018-11-20T01:37:19.102Z,10.57
2018-11-20T01:39:51.533Z,10.73
2018-11-20T01:42:23.921Z,10.30
2018-11-20T01:44:56.350Z,10.67
2018-11-20T01:47:29.007Z,10.50
2018-11-20T01:50:01.662Z,10.87
2018-11-20T01:52:34.071Z,10.40
2018-11-20T01:55:06.496Z,11.87
2018-11-20T01:57:38.912Z,10.80
2018-11-20T02:00:11.334Z,11.77
2018-11-20T02:02:44.006Z,11.60
2018-11-20T02:05:16.697Z,11.67
2018-11-20T02:07:49.374Z,10.73
2018-11-20T02:10:22.399Z,11.50
2018-11-20T02:13:06.167Z,11.27
2018-11-20T02:15:38.593Z,12.47
2018-11-20T02:18:12.670Z,12.43
2018-11-20T02:20:46.813Z,12.00
2018-11-20T02:23:19.462Z,12.60
2018-11-20T02:25:52.181Z,12.73
2018-11-20T02:28:24.598Z,11.70
2018-11-20T02:30:57.025Z,13.00
2018-11-20T02:33:29.423Z,11.80
2018-11-20T02:36:02.069Z,12.60
2018-11-20T02:38:34.470Z,12.90
2018-11-20T02:41:06.885Z,12.20
2018-11-20T02:43:39.294Z,13.27
2018-11-20T02:46:12.185Z,13.37
2018-11-20T02:48:44.573Z,13.33
2018-11-20T02:51:16.996Z,13.13
2018-11-20T02:53:49.393Z,13.03
2018-11-20T02:56:21.808Z,13.57
2018-11-20T02:58:54.208Z,13.47
2018-11-20T03:01:26.930Z,12.90
2018-11-20T03:03:59.609Z,13.07
2018-11-20T03:06:32.030Z,13.10
2018-11-20T03:09:06.143Z,13.20
2018-11-20T03:11:38.885Z,13.17
2018-11-20T03:14:11.290Z,13.40
2018-11-20T03:16:44.026Z,13.50
2018-11-20T03:19:16.769Z,13.77
2018-11-20T03:21:49.458Z,13.70
2018-11-20T03:24:21.894Z,15.40
2018-11-20T03:26:54.391Z,14.47
2018-11-20T03:29:39.706Z,14.97
2018-11-20T03:32:12.135Z,15.97
2018-11-20T03:34:44.554Z,16.13
2018-11-20T03:37:16.986Z,16.20
2018-11-20T03:39:49.670Z,15.33
2018-11-20T03:42:22.102Z,15.57
2018-11-20T03:44:54.822Z,16.33
2018-11-20T03:47:27.289Z,15.77
2018-11-20T03:49:59.715Z,16.63
2018-11-20T03:52:32.154Z,15.87
2018-11-20T03:55:05.024Z,15.53
2018-11-20T03:57:37.457Z,16.17
2018-11-20T04:00:09.888Z,17.27
2018-11-20T04:02:42.315Z,14.83
2018-11-20T04:05:14.741Z,15.23
2018-11-20T04:07:47.174Z,15.80
2018-11-20T04:10:19.590Z,16.43
2018-11-20T04:12:52.022Z,16.20
2018-11-20T04:15:24.710Z,15.53
2018-11-20T04:17:57.211Z,16.20
2018-11-20T04:20:29.561Z,15.17
2018-11-20T04:23:02.269Z,15.93
2018-11-20T04:25:34.674Z,15.30
2018-11-20T04:28:07.426Z,16.07
2018-11-20T04:31:48.359Z,15.27
2018-11-20T04:34:20.770Z,15.33
2018-11-20T04:36:55.388Z,15.40
2018-11-20T04:39:27.794Z,15.60
2018-11-20T04:42:00.182Z,15.00
2018-11-20T04:44:32.898Z,14.20
2018-11-20T04:47:05.603Z,15.37
2018-11-20T04:49:38.021Z,15.00
2018-11-20T04:52:10.429Z,14.90
2018-11-20T04:54:43.090Z,14.47
2018-11-20T04:57:15.492Z,15.23
2018-11-20T04:59:48.139Z,15.43
2018-11-20T05:02:20.539Z,14.70
2018-11-20T05:04:52.951Z,14.77
2018-11-20T05:07:25.805Z,13.90
2018-11-20T05:09:58.484Z,15.53
2018-11-20T05:12:31.172Z,15.23
2018-11-20T05:15:04.138Z,14.60
2018-11-20T05:17:36.786Z,14.20
2018-11-20T05:20:09.194Z,14.27
2018-11-20T05:22:42.140Z,14.67
2018-11-20T05:25:14.829Z,14.37
2018-11-20T05:27:47.321Z,14.70
2018-11-20T05:30:20.003Z,13.67
2018-11-20T05:32:52.426Z,14.40
2018-11-20T05:35:25.154Z,14.73
2018-11-20T05:37:57.582Z,15.20
2018-11-20T05:40:30.437Z,14.67
2018-11-20T05:43:02.718Z,14.73
2018-11-20T05:45:35.197Z,15.53
2018-11-20T05:48:07.614Z,14.77
2018-11-20T05:50:40.322Z,14.67
2018-11-20T05:53:12.726Z,14.37
2018-11-20T05:55:45.469Z,15.10
2018-11-20T05:58:18.206Z,15.23
2018-11-20T06:00:50.918Z,14.97
2018-11-20T06:03:23.335Z,14.97
2018-11-20T06:05:55.774Z,13.77
2018-11-20T06:08:28.411Z,15.60
2018-11-20T06:11:00.850Z,14.93
2018-11-20T06:13:33.281Z,15.00
2018-11-20T06:16:05.716Z,15.10
2018-11-20T06:18:38.162Z,15.37
2018-11-20T06:21:10.598Z,16.00
2018-11-20T06:24:24.708Z,15.27
2018-11-20T06:27:09.513Z,16.80
2018-11-20T06:29:54.534Z,15.23
2018-11-20T06:32:39.657Z,15.87
2018-11-20T06:35:24.812Z,15.33
2018-11-20T06:38:09.643Z,16.93
2018-11-20T06:40:42.381Z,15.27
2018-11-20T06:43:34.500Z,14.60
2018-11-20T06:46:26.344Z,15.80
2018-11-20T06:49:18.226Z,14.93
2018-11-20T06:52:10.041Z,15.63
2018-11-20T06:55:02.153Z,16.10
2018-11-20T06:57:53.982Z,15.17
2018-11-20T07:00:46.089Z,16.23
2018-11-20T07:03:37.942Z,16.17
2018-11-20T07:06:29.764Z,16.93
2018-11-20T07:09:21.622Z,15.80
2018-11-20T07:12:13.460Z,15.90
2018-11-20T07:15:05.770Z,15.60
2018-11-20T07:17:57.492Z,16.37
2018-11-20T07:20:49.572Z,17.93
2018-11-20T07:23:42.289Z,16.40
2018-11-20T07:26:34.379Z,15.63
2018-11-20T07:29:26.231Z,15.87
2018-11-20T07:32:18.051Z,16.17
2018-11-20T07:35:09.903Z,16.20
2018-11-20T07:38:01.739Z,15.37
2018-11-20T07:40:53.571Z,15.77
2018-11-20T07:43:45.726Z,16.23
2018-11-20T07:46:37.493Z,15.97
2018-11-20T07:49:29.329Z,15.77
2018-11-20T07:52:21.150Z,16.20
2018-11-20T07:54:53.842Z,16.23
2018-11-20T07:57:45.660Z,16.77
2018-11-20T08:00:37.501Z,16.07
2018-11-20T08:03:29.326Z,16.23
2018-11-20T08:06:21.166Z,16.50
2018-11-20T08:09:12.997Z,16.80
2018-11-20T08:12:04.816Z,15.97
2018-11-20T08:14:56.656Z,16.73
2018-11-20T08:17:48.771Z,15.57
2018-11-20T08:20:40.614Z,15.57
2018-11-20T08:23:32.438Z,16.23
2018-11-20T08:26:24.468Z,16.77
2018-11-20T08:29:16.389Z,16.47
2018-11-20T08:32:08.487Z,16.20
2018-11-20T08:35:00.585Z,16.80
2018-11-20T08:37:52.693Z,15.60
2018-11-20T08:40:44.509Z,16.47
2018-11-20T08:43:36.348Z,16.30
2018-11-20T08:46:28.194Z,16.73
2018-11-20T08:49:20.016Z,17.33
2018-11-20T08:52:11.867Z,15.80
2018-11-20T08:55:03.989Z,16.50
2018-11-20T08:57:55.821Z,16.97
2018-11-20T09:00:47.647Z,16.00
2018-11-20T09:03:39.483Z,15.97
2018-11-20T09:06:31.307Z,16.67
2018-11-20T09:09:23.396Z,17.77
2018-11-20T09:12:15.219Z,16.47
2018-11-20T09:15:07.061Z,16.47
2018-11-20T09:17:58.952Z,15.90
2018-11-20T09:20:50.721Z,15.83
2018-11-20T09:23:42.569Z,16.73
2018-11-20T09:26:34.396Z,16.47
2018-11-20T09:29:26.253Z,16.77
2018-11-20T09:32:18.075Z,16.30
2018-11-20T09:35:10.002Z,15.77
2018-11-20T09:38:01.754Z,17.10
2018-11-20T09:40:53.607Z,17.23
2018-11-20T09:44:04.850Z,17.50
2018-11-20T09:46:56.724Z,17.47
2018-11-20T09:49:49.068Z,16.33
2018-11-20T09:52:41.191Z,16.37
2018-11-20T09:55:33.252Z,16.63
2018-11-20T09:58:25.076Z,17.37
2018-11-20T10:01:16.928Z,16.47
2018-11-20T10:04:08.750Z,16.60
2018-11-20T10:07:00.911Z,16.80
2018-11-20T10:09:52.662Z,16.07
2018-11-20T10:12:44.492Z,15.73
2018-11-20T10:15:36.644Z,16.83
2018-11-20T10:18:28.592Z,17.73
2018-11-20T10:21:20.412Z,17.03
2018-11-20T10:24:12.189Z,17.50
2018-11-20T10:27:04.265Z,16.30
2018-11-20T10:29:56.090Z,15.73
2018-11-20T10:32:47.928Z,16.20
2018-11-20T10:35:39.775Z,16.40
2018-11-20T10:38:31.591Z,17.63
2018-11-20T10:41:23.443Z,17.30
2018-11-20T10:44:15.286Z,17.27
2018-11-20T10:47:07.152Z,16.10
2018-11-20T10:49:58.968Z,17.33
2018-11-20T10:52:50.825Z,16.53
2018-11-20T10:55:42.646Z,17.40
2018-11-20T10:58:34.735Z,16.97
2018-11-20T11:01:26.571Z,17.90
2018-11-20T11:04:18.481Z,16.90
2018-11-20T11:07:10.539Z,16.47
2018-11-20T11:10:02.397Z,17.10
2018-11-20T11:12:54.230Z,16.93
2018-11-20T11:15:46.096Z,17.20
2018-11-20T11:18:38.236Z,16.83
2018-11-20T11:21:30.020Z,15.80
2018-11-20T11:24:21.881Z,17.23
2018-11-20T11:27:13.696Z,17.73
2018-11-20T11:30:06.590Z,15.57
2018-11-20T11:32:50.930Z,16.50
2018-11-20T11:35:36.008Z,16.70
2018-11-20T11:38:20.833Z,16.47
2018-11-20T11:41:05.717Z,17.40
2018-11-20T11:43:50.962Z,16.77
2018-11-20T11:46:35.608Z,15.43
2018-11-20T11:49:20.245Z,16.63
2018-11-20T11:52:05.342Z,15.67
2018-11-20T11:54:50.700Z,15.97
2018-11-20T11:57:35.419Z,15.77
2018-11-20T12:00:19.940Z,16.60
2018-11-20T12:05:48.893Z,15.83
2018-11-20T12:08:33.662Z,15.10
2018-11-20T12:11:18.685Z,16.37
2018-11-20T12:14:03.705Z,15.97
2018-11-20T12:16:48.966Z,16.70
2018-11-20T12:19:33.733Z,15.83
2018-11-20T12:22:18.708Z,15.33
2018-11-20T12:25:03.448Z,16.87
2018-11-20T12:27:48.516Z,16.37
2018-11-20T12:30:34.828Z,16.90
2018-11-20T12:33:18.045Z,17.07
2018-11-20T12:36:03.303Z,17.33
2018-11-20T12:38:48.156Z,16.13
2018-11-20T12:41:32.730Z,15.93
2018-11-20T12:44:18.116Z,16.63
2018-11-20T12:47:02.255Z,18.03
2018-11-20T12:49:47.130Z,17.83
2018-11-20T12:52:32.511Z,17.23
2018-11-20T12:55:17.168Z,17.33
2018-11-20T12:58:01.980Z,17.47
2018-11-20T13:00:46.820Z,16.73
2018-11-20T13:03:32.941Z,17.70
2018-11-20T13:06:16.702Z,16.57
2018-11-20T13:09:01.835Z,16.10
2018-11-20T13:11:47.065Z,17.50
2018-11-20T13:14:31.822Z,15.83
2018-11-20T13:17:16.589Z,16.80
2018-11-20T13:20:03.877Z,17.27
2018-11-20T13:22:46.785Z,16.53
2018-11-20T13:25:31.719Z,17.13
2018-11-20T13:28:04.499Z,17.03
2018-11-20T13:30:56.325Z,17.80
2018-11-20T13:33:49.685Z,17.17
2018-11-20T13:36:39.994Z,17.17
2018-11-20T13:39:32.153Z,17.40
2018-11-20T13:42:25.398Z,16.93
2018-11-20T13:45:18.656Z,18.33
2018-11-20T13:48:09.057Z,18.37
2018-11-20T13:51:00.877Z,18.40
2018-11-20T13:53:52.726Z,18.37
2018-11-20T13:56:44.551Z,18.23
2018-11-20T13:59:36.889Z,17.57
2018-11-20T14:02:28.789Z,19.10
2018-11-20T14:05:20.610Z,19.43
2018-11-20T14:08:12.444Z,17.83
2018-11-20T14:10:45.464Z,19.27
2018-11-20T14:13:39.646Z,19.63
2018-11-20T14:16:31.469Z,20.13
2018-11-20T14:19:23.311Z,19.20
2018-11-20T14:22:15.138Z,20.00
2018-11-20T14:25:26.845Z,19.43
2018-11-20T14:28:18.658Z,18.10
2018-11-20T14:31:10.511Z,19.47
2018-11-20T14:34:02.611Z,18.93
2018-11-20T14:36:54.745Z,19.17
2018-11-20T14:39:46.596Z,19.83
2018-11-20T14:42:38.446Z,19.00
2018-11-20T14:45:30.308Z,19.17
2018-11-20T14:48:22.466Z,19.00
2018-11-20T14:51:14.611Z,18.87
2018-11-20T14:54:06.436Z,17.87
2018-11-20T14:56:58.263Z,18.47
2018-11-20T14:59:50.408Z,18.10
2018-11-20T15:02:42.231Z,18.63
2018-11-20T15:05:34.066Z,17.93
2018-11-20T15:08:25.943Z,16.47
2018-11-20T15:11:17.708Z,18.33
2018-11-20T15:14:09.795Z,17.53
2018-11-20T15:17:01.635Z,16.20
2018-11-20T15:19:53.465Z,17.10
2018-11-20T15:22:45.320Z,16.23
2018-11-20T15:25:37.247Z,15.50
2018-11-20T15:28:29.327Z,14.53
2018-11-20T15:31:21.200Z,13.93
2018-11-20T15:34:13.024Z,14.43
2018-11-20T15:37:05.176Z,14.13
2018-11-20T15:39:57.259Z,13.27
2018-11-20T15:42:49.125Z,12.43
2018-11-20T15:45:21.566Z,11.13
2018-11-20T15:48:13.404Z,11.07
2018-11-20T15:51:05.262Z,11.63
2018-11-20T15:53:57.101Z,9.77
2018-11-20T15:56:49.177Z,10.57
2018-11-20T15:59:41.019Z,10.63
2018-11-20T16:02:32.892Z,9.67
2018-11-20T16:05:24.716Z,9.27
2018-11-20T16:08:16.567Z,9.43
2018-11-20T16:11:08.650Z,8.60
2018-11-20T16:14:00.747Z,8.27
2018-11-20T16:16:52.565Z,8.03
2018-11-20T16:19:44.392Z,8.50
2018-11-20T16:22:36.236Z,8.33
2018-11-20T16:25:28.090Z,8.40
2018-11-20T16:28:20.459Z,8.93
2018-11-20T16:31:12.310Z,8.57
2018-11-20T16:34:04.142Z,8.80
2018-11-20T16:36:55.963Z,8.13
2018-11-20T16:39:47.822Z,7.80
2018-11-20T16:42:39.618Z,8.60
2018-11-20T16:45:31.447Z,8.27
2018-11-20T16:48:23.266Z,8.30
2018-11-20T16:51:15.103Z,8.57
2018-11-20T16:54:06.920Z,8.70
2018-11-20T16:56:58.752Z,8.40
2018-11-20T16:59:50.871Z,8.10
2018-11-20T17:02:42.687Z,7.70
2018-11-20T17:05:34.524Z,7.90
2018-11-20T17:08:26.357Z,8.20
2018-11-20T17:11:18.201Z,8.70
2018-11-20T17:14:10.013Z,8.23
2018-11-20T17:17:02.173Z,8.50
2018-11-20T17:19:53.965Z,8.53
2018-11-20T17:22:46.315Z,8.83
2018-11-20T17:25:38.180Z,9.70
2018-11-20T17:28:30.019Z,8.73
2018-11-20T17:31:21.869Z,9.13
2018-11-20T17:34:13.708Z,9.90
2018-11-20T17:37:05.796Z,10.57
2018-11-20T17:39:57.618Z,10.10
2018-11-20T17:42:49.450Z,9.10
2018-11-20T17:45:21.882Z,9.57
2018-11-20T17:48:13.718Z,10.47
2018-11-20T17:51:05.538Z,9.50
2018-11-20T17:53:57.360Z,10.53
2018-11-20T17:56:49.181Z,9.40
2018-11-20T17:59:41.023Z,10.80
2018-11-20T18:02:32.852Z,10.87
2018-11-20T18:05:24.683Z,11.07
2018-11-20T18:08:16.531Z,11.20
2018-11-20T18:11:08.361Z,10.50
2018-11-20T18:14:00.447Z,10.40
2018-11-20T18:16:52.260Z,11.10
2018-11-20T18:19:44.436Z,11.03
2018-11-20T18:22:36.263Z,10.30
2018-11-20T18:25:28.115Z,12.00
2018-11-20T18:28:19.939Z,12.10
2018-11-20T18:31:11.787Z,11.90
2018-11-20T18:34:04.170Z,11.50
2018-11-20T18:36:56.006Z,12.70
2018-11-20T18:39:48.101Z,12.10
2018-11-20T18:42:40.695Z,12.60
2018-11-20T18:45:32.515Z,11.80
2018-11-20T18:48:24.384Z,11.80
2018-11-20T18:51:16.207Z,12.37
2018-11-20T18:54:08.313Z,11.07
2018-11-20T18:57:00.146Z,12.60
2018-11-20T18:59:52.006Z,12.33
2018-11-20T19:02:43.863Z,12.90
2018-11-20T19:05:35.681Z,12.37
2018-11-20T19:08:27.526Z,13.53
2018-11-20T19:11:19.357Z,12.90
2018-11-20T19:14:11.246Z,13.30
2018-11-20T19:17:03.038Z,13.80
2018-11-20T19:19:54.878Z,13.57
2018-11-20T19:22:46.725Z,12.97
2018-11-20T19:25:38.584Z,13.83
2018-11-20T19:28:30.427Z,12.57
2018-11-20T19:31:22.273Z,13.03
2018-11-20T19:34:14.415Z,13.97
2018-11-20T19:37:06.251Z,13.33
2018-11-20T19:39:58.090Z,13.57
2018-11-20T19:42:50.265Z,14.20
2018-11-20T19:45:42.101Z,13.83
2018-11-20T19:48:34.269Z,14.10
2018-11-20T19:51:26.566Z,14.50
2018-11-20T19:54:18.548Z,13.40
2018-11-20T19:57:10.184Z,13.97
2018-11-20T20:00:02.025Z,13.60
2018-11-20T20:02:53.868Z,14.13
2018-11-20T20:05:45.943Z,13.83
2018-11-20T20:08:37.779Z,13.93
2018-11-20T20:11:29.635Z,14.67
2018-11-20T20:14:21.714Z,13.47
2018-11-20T20:17:13.558Z,14.53
2018-11-20T20:20:07.499Z,15.27
2018-11-20T20:22:59.330Z,14.90
2018-11-20T20:25:51.180Z,14.53
2018-11-20T20:28:43.039Z,14.47
2018-11-20T20:31:34.862Z,14.90
2018-11-20T20:34:26.708Z,15.10
2018-11-20T20:37:18.540Z,15.50
2018-11-20T20:40:10.397Z,15.87
2018-11-20T20:43:04.978Z,15.97
2018-11-20T20:45:54.094Z,14.53
2018-11-20T20:48:45.959Z,15.97
2018-11-20T20:51:37.797Z,15.50
2018-11-20T20:54:29.633Z,15.13
2018-11-20T20:57:21.452Z,14.73
2018-11-20T21:00:13.519Z,15.33
2018-11-20T21:03:05.344Z,14.80
2018-11-20T21:05:57.182Z,15.10
2018-11-20T21:08:49.001Z,16.30
2018-11-20T21:11:40.837Z,15.93
2018-11-20T21:14:32.921Z,16.30
2018-11-20T21:17:24.765Z,15.50
2018-11-20T21:20:16.585Z,14.47
2018-11-20T21:23:08.712Z,15.03
2018-11-20T21:26:00.557Z,15.37
2018-11-20T21:28:52.389Z,16.13
2018-11-20T21:31:44.225Z,14.90
2018-11-20T21:34:36.042Z,16.00
2018-11-20T21:37:27.889Z,16.17
2018-11-20T21:40:20.056Z,14.37
2018-11-20T21:43:12.149Z,14.90
2018-11-20T21:46:04.016Z,14.83
2018-11-20T21:48:55.852Z,14.67
2018-11-20T21:51:47.701Z,15.27
2018-11-20T21:54:39.524Z,15.30
2018-11-20T21:57:31.564Z,14.80
2018-11-20T22:00:26.395Z,14.83
2018-11-20T22:03:18.242Z,14.27
2018-11-20T22:06:10.074Z,15.27
2018-11-20T22:09:01.917Z,14.70
2018-11-20T22:11:54.050Z,14.43
